createdAt,value
2019-05-13T00:04:14.147Z,8.25
2019-05-13T00:09:16.424Z,8.16
2019-05-13T00:14:18.471Z,8.14
2019-05-13T00:19:20.567Z,8.07
2019-05-13T00:24:24.303Z,7.98
2019-05-13T00:29:28.395Z,7.97
2019-05-13T00:34:30.587Z,7.88
2019-05-13T00:39:33.636Z,7.86
2019-05-13T00:44:35.966Z,7.82
2019-05-13T00:49:38.152Z,7.76
2019-05-13T00:54:40.158Z,7.69
2019-05-13T00:59:44.250Z,7.62
2019-05-13T01:04:46.545Z,7.54
2019-05-13T01:09:48.644Z,7.47
2019-05-13T01:14:50.648Z,7.38
2019-05-13T01:19:53.806Z,7.36
2019-05-13T01:24:56.159Z,7.28
2019-05-13T01:29:58.185Z,7.21
2019-05-13T01:35:00.264Z,7.12
2019-05-13T01:40:05.062Z,7.02
2019-05-13T01:45:07.369Z,6.96
2019-05-13T01:50:09.945Z,6.96
2019-05-13T01:55:14.489Z,6.93
2019-05-13T02:00:18.166Z,6.86
2019-05-13T02:05:20.227Z,6.81
2019-05-13T02:10:40.706Z,6.71
2019-05-13T02:15:45.187Z,6.66
2019-05-13T02:20:47.367Z,6.58
2019-05-13T02:25:49.487Z,6.56
2019-05-13T02:30:51.712Z,6.55
2019-05-13T02:35:54.065Z,6.52
2019-05-13T02:40:56.584Z,6.46
2019-05-13T02:45:59.422Z,6.42
2019-05-13T02:51:03.652Z,6.36
2019-05-13T02:56:06.806Z,6.30
2019-05-13T03:01:12.332Z,6.30
2019-05-13T03:06:13.570Z,6.23
2019-05-13T03:11:17.301Z,6.18
2019-05-13T03:16:36.161Z,6.15
2019-05-13T03:21:38.435Z,6.10
2019-05-13T03:26:42.754Z,6.04
2019-05-13T03:31:46.873Z,6.08
2019-05-13T03:36:48.942Z,6.07
2019-05-13T03:41:53.019Z,6.02
2019-05-13T03:46:58.688Z,6.05
2019-05-13T03:52:03.073Z,6.10
2019-05-13T03:57:05.891Z,6.15
2019-05-13T04:02:08.099Z,6.02
2019-05-13T04:07:12.941Z,6.09
2019-05-13T04:12:15.393Z,6.05
2019-05-13T04:17:17.704Z,6.04
2019-05-13T04:22:22.748Z,6.07
2019-05-13T04:27:24.150Z,6.07
2019-05-13T04:32:28.977Z,6.10
2019-05-13T04:37:32.836Z,6.11
2019-05-13T04:42:35.828Z,6.18
2019-05-13T04:47:37.988Z,6.19
2019-05-13T04:52:42.340Z,6.26
2019-05-13T04:57:45.325Z,6.30
2019-05-13T05:03:13.625Z,6.40
2019-05-13T05:08:32.806Z,6.70
2019-05-13T05:19:23.262Z,7.79
2019-05-13T05:24:46.091Z,7.77
2019-05-13T05:30:13.687Z,7.76
2019-05-13T05:35:42.775Z,7.75
2019-05-13T05:40:47.660Z,7.68
2019-05-13T05:45:51.873Z,7.65
2019-05-13T05:50:55.392Z,7.62
2019-05-13T05:55:59.426Z,7.67
2019-05-13T06:01:02.898Z,7.55
2019-05-13T06:06:05.931Z,7.55
2019-05-13T06:11:08.443Z,7.44
2019-05-13T06:16:12.337Z,7.52
2019-05-13T06:21:14.631Z,7.54
2019-05-13T06:26:16.979Z,7.73
2019-05-13T06:31:21.386Z,7.75
2019-05-13T06:36:23.208Z,7.82
2019-05-13T06:41:25.220Z,7.80
2019-05-13T06:46:27.267Z,7.97
2019-05-13T06:51:31.393Z,8.05
2019-05-13T06:56:33.680Z,8.13
2019-05-13T07:01:37.739Z,8.30
2019-05-13T07:06:41.892Z,8.38
2019-05-13T07:11:44.296Z,8.43
2019-05-13T07:16:46.270Z,8.51
2019-05-13T07:21:48.486Z,8.54
2019-05-13T07:26:52.366Z,8.65
2019-05-13T07:31:54.634Z,8.72
2019-05-13T07:36:57.032Z,8.83
2019-05-13T07:42:04.346Z,8.98
2019-05-13T07:47:03.951Z,9.01
2019-05-13T07:52:06.302Z,9.18
2019-05-13T07:57:08.917Z,9.24
2019-05-13T08:02:12.440Z,9.38
2019-05-13T08:07:14.667Z,9.48
2019-05-13T08:12:16.938Z,9.59
2019-05-13T08:17:22.498Z,9.71
2019-05-13T08:22:24.252Z,9.70
2019-05-13T08:27:30.674Z,9.87
2019-05-13T08:32:31.477Z,9.89
2019-05-13T08:37:33.935Z,9.97
2019-05-13T08:42:36.107Z,10.16
2019-05-13T08:47:38.360Z,10.26
2019-05-13T08:52:42.264Z,10.36
2019-05-13T08:57:44.973Z,10.41
2019-05-13T09:02:47.087Z,10.53
2019-05-13T09:07:49.190Z,10.75
2019-05-13T09:12:52.221Z,10.88
2019-05-13T09:17:54.335Z,10.89
2019-05-13T09:22:57.448Z,10.99
2019-05-13T09:28:02.600Z,11.07
2019-05-13T09:33:04.316Z,11.20
2019-05-13T09:38:06.712Z,11.26
2019-05-13T09:43:11.435Z,11.26
2019-05-13T09:48:13.015Z,11.39
2019-05-13T09:53:16.288Z,11.54
2019-05-13T09:58:18.423Z,11.64
2019-05-13T10:03:26.555Z,11.65
2019-05-13T10:08:24.637Z,11.73
2019-05-13T10:13:26.660Z,12.03
2019-05-13T10:18:28.937Z,12.02
2019-05-13T10:23:32.945Z,12.02
2019-05-13T10:28:35.836Z,12.15
2019-05-13T10:33:38.391Z,12.31
2019-05-13T10:38:41.452Z,12.22
2019-05-13T10:43:44.987Z,12.30
2019-05-13T10:48:47.125Z,12.39
2019-05-13T10:53:49.215Z,12.61
2019-05-13T10:58:53.463Z,12.72
2019-05-13T11:03:56.063Z,12.91
2019-05-13T11:08:58.167Z,13.03
2019-05-13T11:14:10.193Z,13.38
2019-05-13T11:19:04.304Z,13.51
2019-05-13T11:24:06.545Z,13.51
2019-05-13T11:29:09.088Z,13.26
2019-05-13T11:34:11.220Z,13.44
2019-05-13T11:39:13.418Z,13.43
2019-05-13T11:44:16.888Z,13.30
2019-05-13T11:49:19.315Z,13.62
2019-05-13T11:54:22.334Z,13.82
2019-05-13T11:59:24.648Z,13.82
2019-05-13T12:04:26.808Z,13.80
2019-05-13T12:09:29.025Z,13.99
2019-05-13T12:14:44.195Z,14.05
2019-05-13T12:19:35.030Z,14.01
2019-05-13T12:24:37.181Z,14.18
2019-05-13T12:29:42.747Z,14.30
2019-05-13T12:34:45.948Z,14.57
2019-05-13T12:45:03.998Z,14.86
2019-05-13T12:49:52.663Z,14.61
2019-05-13T12:54:54.752Z,14.60
2019-05-13T12:59:56.855Z,14.50
2019-05-13T13:05:10.593Z,14.66
2019-05-13T13:10:03.555Z,14.67
2019-05-13T13:15:31.785Z,14.61
2019-05-13T13:20:15.138Z,14.97
2019-05-13T13:25:15.414Z,14.71
2019-05-13T13:30:17.880Z,14.16
2019-05-13T13:35:21.836Z,14.32
2019-05-13T13:40:29.394Z,14.68
2019-05-13T13:45:28.444Z,14.97
2019-05-13T13:50:33.428Z,14.74
2019-05-13T13:55:34.657Z,15.14
2019-05-13T14:00:47.255Z,15.45
2019-05-13T14:05:42.820Z,15.57
2019-05-13T14:10:45.195Z,14.98
2019-05-13T14:15:47.196Z,14.78
2019-05-13T14:20:49.497Z,14.68
2019-05-13T14:25:52.957Z,14.72
2019-05-13T14:30:55.323Z,14.67
2019-05-13T14:35:57.419Z,14.63
2019-05-13T14:41:01.605Z,14.76
2019-05-13T14:46:03.880Z,14.73
2019-05-13T14:51:07.363Z,14.67
2019-05-13T14:56:09.542Z,14.89
2019-05-13T15:01:34.015Z,15.07
2019-05-13T15:06:16.001Z,15.37
2019-05-13T15:11:18.006Z,15.52
2019-05-13T15:16:22.392Z,15.64
2019-05-13T15:21:24.290Z,15.61
2019-05-13T15:26:26.498Z,15.60
2019-05-13T15:31:28.629Z,15.55
2019-05-13T15:36:33.508Z,15.59
2019-05-13T15:41:35.637Z,15.52
2019-05-13T15:46:38.057Z,15.49
2019-05-13T15:51:42.204Z,15.54
2019-05-13T15:56:46.383Z,15.33
2019-05-13T16:01:48.456Z,15.25
2019-05-13T16:06:52.151Z,15.32
2019-05-13T16:11:54.561Z,15.46
2019-05-13T16:16:56.573Z,15.46
2019-05-13T16:22:01.205Z,15.15
2019-05-13T16:27:02.859Z,15.01
2019-05-13T16:32:05.379Z,14.93
2019-05-13T16:37:07.603Z,14.95
2019-05-13T16:42:11.666Z,15.04
2019-05-13T16:47:14.230Z,14.98
2019-05-13T16:52:16.315Z,14.69
2019-05-13T16:57:18.502Z,14.54
2019-05-13T17:02:20.655Z,14.28
2019-05-13T17:07:22.649Z,14.20
2019-05-13T17:12:24.736Z,14.06
2019-05-13T17:17:27.048Z,14.02
2019-05-13T17:22:31.462Z,14.12
2019-05-13T17:27:33.146Z,14.15
2019-05-13T17:32:35.362Z,14.14
2019-05-13T17:37:37.306Z,14.08
2019-05-13T17:42:41.411Z,14.05
2019-05-13T17:47:43.324Z,13.98
2019-05-13T17:52:45.325Z,13.84
2019-05-13T22:53:12.584Z,12.35
2019-05-13T22:58:15.938Z,10.37
2019-05-13T23:03:18.192Z,10.37
2019-05-13T23:08:21.745Z,9.98
2019-05-13T23:13:24.195Z,9.78
2019-05-13T23:18:27.334Z,9.61
2019-05-13T23:23:30.215Z,9.43
2019-05-13T23:28:32.467Z,9.39
2019-05-13T23:33:34.621Z,9.39
2019-05-13T23:38:36.750Z,9.27
2019-05-13T23:43:40.435Z,9.11
2019-05-13T23:48:42.554Z,8.92
2019-05-13T23:53:44.849Z,8.83
2019-05-13T23:58:47.018Z,8.75
